createdAt,value
2018-12-26T00:02:33.020Z,102737.09
2018-12-26T00:06:38.129Z,102734.50
2018-12-26T00:10:43.202Z,102720.12
2018-12-26T00:14:48.258Z,102715.48
2018-12-26T00:18:53.357Z,102708.33
2018-12-26T00:22:58.657Z,102715.06
2018-12-26T00:27:03.801Z,102710.27
2018-12-26T00:31:08.958Z,102712.86
2018-12-26T00:35:14.232Z,102709.03
2018-12-26T00:39:19.595Z,102717.09
2018-12-26T00:43:24.729Z,102703.92
2018-12-26T00:47:29.906Z,102710.75
2018-12-26T00:51:35.018Z,102710.58
2018-12-26T00:55:40.365Z,102702.04
2018-12-26T00:59:45.325Z,102712.44
2018-12-26T01:03:50.580Z,102711.87
2018-12-26T01:07:55.735Z,102702.14
2018-12-26T01:12:00.869Z,102701.30
2018-12-26T01:16:06.029Z,102694.99
2018-12-26T01:20:11.222Z,102698.04
2018-12-26T01:24:16.291Z,102700.94
2018-12-26T01:28:21.288Z,102694.45
2018-12-26T01:32:26.602Z,102695.63
2018-12-26T01:36:31.808Z,102704.25
2018-12-26T01:40:36.874Z,102691.45
2018-12-26T01:44:41.919Z,102689.66
2018-12-26T01:48:47.094Z,102695.52
2018-12-26T01:52:52.220Z,102686.36
2018-12-26T01:56:57.699Z,102681.77
2018-12-26T02:01:03.293Z,102680.00
2018-12-26T02:05:08.417Z,102673.40
2018-12-26T02:09:13.966Z,102668.16
2018-12-26T02:13:19.049Z,102663.27
2018-12-26T02:17:24.057Z,102661.71
2018-12-26T02:21:29.125Z,102652.61
2018-12-26T02:25:34.278Z,102653.91
2018-12-26T02:29:39.350Z,102651.52
2018-12-26T02:33:44.685Z,102652.58
2018-12-26T02:37:49.790Z,102648.33
2018-12-26T02:41:54.855Z,102651.30
2018-12-26T02:45:59.918Z,102654.14
2018-12-26T02:50:06.202Z,102639.47
2018-12-26T02:54:11.257Z,102646.03
2018-12-26T02:58:16.387Z,102640.36
2018-12-26T03:02:21.500Z,102628.17
2018-12-26T03:06:26.563Z,102634.33
2018-12-26T03:10:31.572Z,102634.70
2018-12-26T03:14:37.083Z,102623.41
2018-12-26T03:18:42.172Z,102635.57
2018-12-26T03:22:47.258Z,102627.05
2018-12-26T03:26:56.323Z,102636.95
2018-12-26T03:30:59.047Z,102633.21
2018-12-26T03:35:04.466Z,102634.02
2018-12-26T03:39:09.625Z,102635.20
2018-12-26T03:48:23.596Z,102627.97
2018-12-26T03:52:28.691Z,102630.78
2018-12-26T03:56:33.746Z,102628.61
2018-12-26T04:00:38.849Z,102624.09
2018-12-26T04:04:43.911Z,102621.05
2018-12-26T04:08:49.064Z,102613.01
2018-12-26T04:12:54.322Z,102618.50
2018-12-26T04:16:59.421Z,102598.41
2018-12-26T04:21:04.520Z,102601.77
2018-12-26T04:25:09.668Z,102585.98
2018-12-26T04:29:14.686Z,102594.52
2018-12-26T04:33:19.793Z,102593.25
2018-12-26T04:37:24.845Z,102590.96
2018-12-26T04:41:29.945Z,102601.61
2018-12-26T04:45:34.999Z,102598.34
2018-12-26T04:49:40.176Z,102606.77
2018-12-26T04:53:45.210Z,102604.42
2018-12-26T04:57:50.276Z,102597.44
2018-12-26T05:01:55.284Z,102600.99
2018-12-26T05:06:00.407Z,102600.17
2018-12-26T05:10:05.656Z,102605.87
2018-12-26T05:14:10.719Z,102594.58
2018-12-26T05:18:15.851Z,102599.13
2018-12-26T05:22:21.076Z,102598.82
2018-12-26T05:26:26.251Z,102593.10
2018-12-26T05:30:31.320Z,102602.47
2018-12-26T05:34:36.472Z,102594.00
2018-12-26T05:38:41.552Z,102597.98
2018-12-26T05:42:46.643Z,102591.59
2018-12-26T05:46:51.650Z,102588.52
2018-12-26T05:50:56.699Z,102595.39
2018-12-26T05:55:01.689Z,102589.58
2018-12-26T05:59:06.747Z,102597.22
2018-12-26T06:03:11.829Z,102599.95
2018-12-26T06:07:16.850Z,102599.69
2018-12-26T06:11:22.188Z,102593.56
2018-12-26T06:15:27.317Z,102597.59
2018-12-26T06:19:32.412Z,102604.45
2018-12-26T06:23:37.450Z,102599.84
2018-12-26T06:27:51.259Z,102598.23
2018-12-26T06:31:55.050Z,102610.48
2018-12-26T06:36:00.145Z,102614.38
2018-12-26T06:40:05.414Z,102608.45
2018-12-26T06:44:10.437Z,102607.34
2018-12-26T06:48:15.497Z,102606.15
2018-12-26T06:52:20.528Z,102601.55
2018-12-26T06:56:25.605Z,102614.88
2018-12-26T07:00:30.709Z,102613.49
2018-12-26T07:04:35.785Z,102614.81
2018-12-26T07:08:40.821Z,102614.88
2018-12-26T07:12:45.806Z,102622.56
2018-12-26T07:16:50.852Z,102629.94
2018-12-26T07:20:55.814Z,102626.02
2018-12-26T07:25:00.850Z,102626.96
2018-12-26T07:29:05.901Z,102624.16
2018-12-26T07:33:10.991Z,102620.16
2018-12-26T07:37:17.461Z,102623.28
2018-12-26T07:41:22.576Z,102626.14
2018-12-26T07:45:28.480Z,102639.13
2018-12-26T07:49:33.603Z,102636.67
2018-12-26T07:53:38.745Z,102637.21
2018-12-26T07:57:43.837Z,102641.86
2018-12-26T08:01:49.039Z,102643.51
2018-12-26T08:05:54.051Z,102634.84
2018-12-26T08:09:59.083Z,102633.52
2018-12-26T08:14:04.140Z,102629.68
2018-12-26T08:18:28.316Z,102633.47
2018-12-26T08:22:33.304Z,102635.58
2018-12-26T08:26:57.579Z,102640.65
2018-12-26T08:31:02.983Z,102643.02
2018-12-26T08:35:07.968Z,102649.16
2018-12-26T08:39:12.946Z,102648.03
2018-12-26T08:43:17.996Z,102657.44
2018-12-26T08:47:23.060Z,102652.61
2018-12-26T08:51:28.124Z,102658.32
2018-12-26T08:55:33.280Z,102651.69
2018-12-26T08:59:38.329Z,102654.25
2018-12-26T09:03:43.499Z,102657.67
2018-12-26T09:07:48.684Z,102647.74
2018-12-26T09:11:53.796Z,102648.88
2018-12-26T09:15:59.001Z,102642.64
2018-12-26T09:20:04.365Z,102633.27
2018-12-26T09:24:09.421Z,102642.83
2018-12-26T09:28:14.447Z,102649.61
2018-12-26T09:32:19.512Z,102642.16
2018-12-26T09:36:24.644Z,102636.59
2018-12-26T09:40:29.714Z,102639.20
2018-12-26T09:44:34.709Z,102642.69
2018-12-26T09:48:39.581Z,102653.95
2018-12-26T09:52:44.681Z,102679.93
2018-12-26T09:56:49.675Z,102638.98
2018-12-26T10:00:54.730Z,102646.44
2018-12-26T10:04:59.751Z,102636.99
2018-12-26T10:09:06.355Z,102623.98
2018-12-26T10:13:11.448Z,102630.91
2018-12-26T10:17:16.506Z,102631.39
2018-12-26T10:21:21.573Z,102636.59
2018-12-26T10:25:26.642Z,102624.88
2018-12-26T10:29:31.954Z,102622.94
2018-12-26T10:33:36.998Z,102622.05
2018-12-26T10:37:42.019Z,102628.78
2018-12-26T10:41:47.122Z,102624.58
2018-12-26T10:45:52.201Z,102615.53
2018-12-26T10:49:57.275Z,102606.96
2018-12-26T10:54:02.353Z,102608.03
2018-12-26T10:58:07.440Z,102605.16
2018-12-26T11:02:12.983Z,102603.28
2018-12-26T11:06:17.949Z,102596.09
2018-12-26T11:10:23.040Z,102581.91
2018-12-26T11:14:28.119Z,102586.28
2018-12-26T11:18:33.309Z,102579.70
2018-12-26T11:22:38.425Z,102574.16
2018-12-26T11:26:43.575Z,102565.15
2018-12-26T11:30:50.314Z,102565.89
2018-12-26T11:34:55.351Z,102559.63
2018-12-26T11:39:00.575Z,102556.53
2018-12-26T11:43:05.917Z,102553.67
2018-12-26T11:47:10.937Z,102557.88
2018-12-26T11:51:16.004Z,102553.28
2018-12-26T11:55:21.170Z,102553.75
2018-12-26T11:59:27.405Z,102561.00
2018-12-26T12:03:39.522Z,102549.31
2018-12-26T12:07:44.457Z,102546.84
2018-12-26T12:11:49.793Z,102549.10
2018-12-26T12:15:54.863Z,102545.97
2018-12-26T12:19:59.972Z,102544.34
2018-12-26T12:24:05.102Z,102537.08
2018-12-26T12:28:10.395Z,102525.94
2018-12-26T12:32:15.538Z,102526.50
2018-12-26T12:36:31.393Z,102525.88
2018-12-26T12:40:55.571Z,102523.49
2018-12-26T12:45:00.675Z,102517.52
2018-12-26T12:49:05.788Z,102522.89
2018-12-26T12:53:10.926Z,102519.66
2018-12-26T12:57:16.064Z,102510.45
2018-12-26T13:01:21.149Z,102512.13
2018-12-26T13:05:26.311Z,102501.19
2018-12-26T13:09:31.377Z,102508.69
2018-12-26T13:13:36.339Z,102500.64
2018-12-26T13:17:41.412Z,102500.38
2018-12-26T13:21:47.521Z,102506.70
2018-12-26T13:25:52.578Z,102499.48
2018-12-26T13:29:57.678Z,102496.48
2018-12-26T13:34:02.806Z,102494.01
2018-12-26T13:38:08.139Z,102494.84
2018-12-26T13:42:13.209Z,102492.41
2018-12-26T13:46:18.422Z,102488.13
2018-12-26T13:50:23.692Z,102488.57
2018-12-26T13:54:30.380Z,102490.29
2018-12-26T13:58:35.576Z,102492.98
2018-12-26T14:02:40.716Z,102493.19
2018-12-26T14:06:45.828Z,102495.11
2018-12-26T14:10:51.091Z,102489.35
2018-12-26T14:14:56.168Z,102486.92
2018-12-26T14:19:01.298Z,102478.31
2018-12-26T14:23:06.581Z,102474.84
2018-12-26T14:27:11.644Z,102465.45
2018-12-26T14:31:16.801Z,102469.90
2018-12-26T14:35:21.927Z,102468.56
2018-12-26T14:39:27.048Z,102474.55
2018-12-26T14:43:32.075Z,102481.54
2018-12-26T14:47:37.169Z,102480.06
2018-12-26T14:51:42.374Z,102474.95
2018-12-26T14:55:47.553Z,102474.95
2018-12-26T14:59:52.589Z,102478.20
2018-12-26T15:03:57.765Z,102486.60
2018-12-26T15:08:02.910Z,102480.34
2018-12-26T15:12:27.111Z,102475.75
2018-12-26T15:16:32.365Z,102475.75
2018-12-26T15:20:37.451Z,102472.88
2018-12-26T15:24:42.597Z,102482.94
2018-12-26T15:28:47.697Z,102482.66
2018-12-26T15:32:52.826Z,102477.95
2018-12-26T15:36:57.814Z,102474.76
2018-12-26T15:41:02.905Z,102470.84
2018-12-26T15:45:07.953Z,102470.84
2018-12-26T15:49:13.124Z,102472.14
2018-12-26T15:53:18.213Z,102460.83
2018-12-26T15:57:23.305Z,102462.53
2018-12-26T16:01:28.351Z,102452.14
2018-12-26T16:05:33.498Z,102449.95
2018-12-26T16:09:38.748Z,102447.79
2018-12-26T16:13:43.831Z,102445.14
2018-12-26T16:17:49.053Z,102438.59
2018-12-26T16:21:54.246Z,102432.52
2018-12-26T16:25:59.239Z,102432.95
2018-12-26T16:30:04.601Z,102436.38
2018-12-26T16:34:09.768Z,102435.06
2018-12-26T16:38:26.649Z,102422.41
2018-12-26T16:42:31.886Z,102422.41
2018-12-26T16:46:36.956Z,102426.81
2018-12-26T16:50:41.980Z,102422.36
2018-12-26T16:54:46.974Z,102411.50
2018-12-26T16:58:51.959Z,102411.92
2018-12-26T17:02:57.055Z,102411.95
2018-12-26T17:07:02.431Z,102410.09
2018-12-26T17:11:07.485Z,102413.92
2018-12-26T17:15:12.842Z,102408.79
2018-12-26T17:19:18.004Z,102406.97
2018-12-26T17:23:23.060Z,102405.14
2018-12-26T17:27:28.091Z,102411.66
2018-12-26T17:31:33.141Z,102412.83
2018-12-26T17:35:38.296Z,102409.13
2018-12-26T17:39:43.378Z,102418.73
2018-12-26T17:43:48.407Z,102415.75
2018-12-26T17:47:53.507Z,102412.64
2018-12-26T17:51:58.551Z,102416.91
2018-12-26T17:56:17.066Z,102426.34
2018-12-26T18:01:00.279Z,102425.09
2018-12-26T18:05:05.484Z,102420.94
2018-12-26T18:09:10.573Z,102423.95
2018-12-26T18:13:15.647Z,102419.96
2018-12-26T18:17:21.737Z,102422.32
2018-12-26T18:21:26.865Z,102415.40
2018-12-26T18:25:31.999Z,102409.19
2018-12-26T18:29:37.110Z,102408.11
2018-12-26T18:33:42.214Z,102413.73
2018-12-26T18:37:47.186Z,102406.09
2018-12-26T18:41:52.270Z,102400.89
2018-12-26T18:45:57.439Z,102408.05
2018-12-26T18:50:02.563Z,102408.05
2018-12-26T18:54:07.582Z,102410.55
2018-12-26T18:58:12.960Z,102403.94
2018-12-26T19:02:18.007Z,102399.61
2018-12-26T19:06:23.231Z,102394.03
2018-12-26T19:10:28.132Z,102398.66
2018-12-26T19:14:33.491Z,102400.13
2018-12-26T19:18:38.783Z,102401.06
2018-12-26T19:22:43.820Z,102404.50
2018-12-26T19:26:48.745Z,102402.25
2018-12-26T19:30:55.479Z,102404.52
2018-12-26T19:35:00.629Z,102397.97
2018-12-26T19:39:07.327Z,102399.05
2018-12-26T19:43:12.280Z,102387.95
2018-12-26T19:47:17.369Z,102390.34
2018-12-26T19:51:22.503Z,102385.48
2018-12-26T19:55:27.710Z,102376.77
2018-12-26T19:59:32.779Z,102379.99
2018-12-26T20:03:37.841Z,102371.66
2018-12-26T20:12:12.880Z,102363.73
2018-12-26T20:16:17.979Z,102353.50
2018-12-26T20:20:23.009Z,102363.77
2018-12-26T20:24:28.073Z,102364.48
2018-12-26T20:28:33.087Z,102348.54
2018-12-26T20:32:38.161Z,102353.74
2018-12-26T20:36:43.240Z,102354.09
2018-12-26T20:40:48.340Z,102347.14
2018-12-26T20:44:53.435Z,102341.17
2018-12-26T20:48:58.943Z,102341.11
2018-12-26T20:53:04.018Z,102341.08
2018-12-26T20:57:09.476Z,102330.77
2018-12-26T21:01:14.592Z,102341.26
2018-12-26T21:05:19.633Z,102328.22
2018-12-26T21:09:24.681Z,102337.44
2018-12-26T21:13:29.731Z,102332.08
2018-12-26T21:17:34.740Z,102330.36
2018-12-26T21:21:39.891Z,102316.58
2018-12-26T21:25:46.713Z,102305.63
2018-12-26T21:29:51.807Z,102293.75
2018-12-26T21:33:56.886Z,102296.19
2018-12-26T21:38:01.935Z,102288.98
2018-12-26T21:42:07.032Z,102283.44
2018-12-26T21:46:12.100Z,102284.74
2018-12-26T21:50:17.174Z,102282.18
2018-12-26T21:54:22.319Z,102273.83
2018-12-26T21:58:27.416Z,102261.69
2018-12-26T22:02:32.532Z,102265.61
2018-12-26T22:06:37.661Z,102273.09
2018-12-26T22:10:42.760Z,102271.45
2018-12-26T22:14:47.793Z,102276.09
2018-12-26T22:18:52.879Z,102275.65
2018-12-26T22:22:58.023Z,102274.42
2018-12-26T22:27:03.075Z,102285.21
2018-12-26T22:31:08.131Z,102276.73
2018-12-26T22:35:13.208Z,102282.55
2018-12-26T22:39:18.270Z,102283.31
2018-12-26T22:43:23.431Z,102288.79
2018-12-26T22:47:28.559Z,102288.13
2018-12-26T22:51:42.072Z,102295.85
2018-12-26T22:55:53.257Z,102280.41
2018-12-26T22:59:58.606Z,102268.90
2018-12-26T23:04:03.773Z,102272.06
2018-12-26T23:08:08.807Z,102279.45
2018-12-26T23:12:13.968Z,102273.72
2018-12-26T23:16:19.046Z,102273.69
2018-12-26T23:20:24.144Z,102283.34
2018-12-26T23:24:29.208Z,102271.94
2018-12-26T23:28:34.207Z,102272.03
2018-12-26T23:32:46.734Z,102262.22
2018-12-26T23:36:51.399Z,102263.83
2018-12-26T23:40:56.419Z,102255.59
2018-12-26T23:45:01.485Z,102256.03
2018-12-26T23:49:06.537Z,102253.53
2018-12-26T23:53:11.596Z,102255.73
2018-12-26T23:57:16.727Z,102248.34
